首页
METAR-TAF:

METAR-TAF

机场 :

仁川國際機場

仁川国际机场, 大韩民国

纬度: 37-28N, 经度: 126-27E, 海拔: 7米

当前天气观测

该预报发布于15分钟前的14:00 UTC
风速24节,风向
温度 28°C
湿度 62%
气压 1001 hPa
能见度10公里或以上
多云层高于3000英尺
阴天层高于8000英尺

METAR: RKSI 201400Z 18024KT 9999 BKN030 OVC080 28/20 Q1001 BECMG -RA

时间: 23:15 (14:15 UTC)

预报

该预报发布于3小时和15分钟前的11:00 UTC
预报有效从20日的 12点(UTC)到 21日的 18点(UTC)
风速20节,风向南转西南,有时为35节阵风
能見度: 8000
少量云层高于1000英尺
多云层高于2500英尺
多云层高于12000英尺
短暂存在
从 20日的 13点(UTC)到 20日的 24点(UTC)
能見度: 3500
小阵雨
成为
从 21日的 01点(UTC)到 21日的 02点(UTC)
风速14节,风向西转西南
散云层高于3000英尺
成为
从 21日的 10点(UTC)到 21日的 11点(UTC)
风速10节,风向西北
成为
从 21日的 13点(UTC)到 21日的 14点(UTC)
风速7节,风向东北
能見度: 4200
轻雾
短暂存在
从 21日的 16点(UTC)到 21日的 18点(UTC)
能見度: 2500
散云层高于500英尺
多云层高于2500英尺

TAF: RKSI 201100Z 2012/2118 20020G35KT 8000 FEW010 BKN025 BKN120 TN26/2021Z TX30/2106Z TEMPO 2013/2024 3500 -SHRA BECMG 2101/2102 25014KT SCT030 BECMG 2110/2111 31010KT BECMG 2113/2114 05007KT 4200 BR TEMPO 2116/2118 2500 SCT005 BKN025

超过4000个机场的气象观测和天气预报(METAR&TAF报告)。

可查询的气象台以黄色和红色小点在地图上表示。

将鼠标移到小点上方,可查看气象台名称。

然后点击查看天气观测和预报。

如需切换地图:点击带黑十字的绿色按钮放大地图;点击带横线的绿色按钮缩小地图;或者点击绿色箭头查看邻近地区的地图。


METAR-TAF: